Time;durP1;ratioP1;P1;durP2;ratioP2;P2;SDS_P1;SDS_P2;PMS_P1;PMS_P2;Temp;Humidity;BMP_temperature;BMP_pressure;BME280_temperature;BME280_humidity;BME280_pressure;Samples;Min_cycle;Max_cycle;Signal;HPM_P1;HPM_P2
2021/08/11 00:00:51;;;;;;;;;;;;;;;16.34;75.31;96782.47;4958764;28;19970;-83
2021/08/11 00:03:17;;;;;;;;;;;;;;;16.34;75.84;96774.53;4966054;28;19986;-82
2021/08/11 00:05:42;;;;;;;;;;;;;;;16.32;75.57;96782.72;4960573;28;19976;-86
2021/08/11 00:08:08;;;;;;;;;;;;;;;16.31;75.41;96783.75;4952536;29;20420;-86
2021/08/11 00:10:34;;;;;;;;;;;;;;;16.28;75.75;96784.25;4953616;28;19970;-85
2021/08/11 00:13:00;;;;;;;;;;;;;;;16.25;76.11;96776.78;4971808;28;20017;-85
2021/08/11 00:15:26;;;;;;;;;;;;;;;16.24;76.05;96781.28;4962481;28;20343;-85
2021/08/11 00:17:52;;;;;;;;;;;;;;;16.23;76.38;96777.06;4962955;28;19970;-85
2021/08/11 00:20:18;;;;;;;;;;;;;;;16.22;76.77;96777.31;4935556;28;20435;-85
2021/08/11 00:22:44;;;;;;;;;;;;;;;16.20;76.50;96779.38;4923149;29;19979;-85
2021/08/11 00:25:10;;;;;;;;;;;;;;;16.18;76.24;96781.47;4970698;28;20457;-85
2021/08/11 00:27:36;;;;;;;;;;;;;;;16.16;76.37;96783.56;4966956;28;19971;-85
2021/08/11 00:30:02;;;;;;;;;;;;;;;16.14;76.70;96772.44;4945313;29;19978;-85
2021/08/11 00:32:28;;;;;;;;;;;;;;;16.11;76.16;96781.66;4953334;28;19977;-85
2021/08/11 00:34:54;;;;;;;;;;;;;;;16.10;76.29;96790.63;4929720;28;19974;-85
2021/08/11 00:37:20;;;;;;;;;;;;;;;16.08;76.56;96768.91;4957703;28;19966;-86
2021/08/11 00:39:46;;;;;;;;;;;;;;;16.05;76.58;96780.00;4929102;28;20034;-86
2021/08/11 00:42:12;;;;;;;;;;;;;;;16.04;76.58;96781.03;4949396;28;19969;-86
2021/08/11 00:44:38;;;;;;;;;;;;;;;16.01;76.59;96782.31;4970233;28;20351;-85
2021/08/11 00:47:04;;;;;;;;;;;;;;;15.98;76.09;96774.88;4947477;28;20017;-85
2021/08/11 00:49:30;;;;;;;;;;;;;;;15.97;76.22;96780.41;4949665;28;19977;-86
2021/08/11 00:51:56;;;;;;;;;;;;;;;15.96;76.26;96784.91;4949472;28;19971;-86
2021/08/11 00:54:22;;;;;;;;;;;;;;;15.94;76.38;96778.25;4954066;28;19973;-86
2021/08/11 00:56:49;;;;;;;;;;;;;;;15.92;76.66;96780.34;4946724;28;19981;-85
2021/08/11 00:59:16;;;;;;;;;;;;;;;15.90;76.37;96780.59;4948692;28;20446;-86
2021/08/11 01:01:43;;;;;;;;;;;;;;;15.88;76.60;96774.75;4945930;28;19973;-85
2021/08/11 01:04:10;;;;;;;;;;;;;;;15.86;76.47;96783.97;4957784;28;19967;-85
2021/08/11 01:06:37;;;;;;;;;;;;;;;15.83;76.81;96772.00;4956438;28;19973;-85
2021/08/11 01:09:04;;;;;;;;;;;;;;;15.82;76.72;96775.72;4946672;28;19971;-85
2021/08/11 01:11:30;;;;;;;;;;;;;;;15.79;76.71;96768.25;4970565;28;19970;-85
2021/08/11 01:13:57;;;;;;;;;;;;;;;15.75;76.63;96767.94;4966479;28;19966;-85
2021/08/11 01:16:23;;;;;;;;;;;;;;;15.74;76.48;96765.53;4968049;28;19967;-85
2021/08/11 01:18:49;;;;;;;;;;;;;;;15.72;76.58;96765.78;4946354;28;19983;-85
2021/08/11 01:21:27;;;;;;;;;;;;;;;15.72;77.12;96770.28;4942718;28;20035;-86
2021/08/11 01:24:19;;;;;;;;;;;;;;;15.71;77.80;96766.81;4947258;28;19977;-85
2021/08/11 01:27:04;;;;;;;;;;;;;;;15.69;77.52;96760.16;4967343;28;19978;-85
2021/08/11 01:29:37;;;;;;;;;;;;;;;15.67;77.44;96764.91;4965974;28;19967;-86
2021/08/11 01:32:07;;;;;;;;;;;;;;;15.66;77.50;96771.22;4961880;28;19967;-85
2021/08/11 01:34:33;;;;;;;;;;;;;;;15.64;77.23;96768.78;4951098;28;19967;-85
2021/08/11 01:37:02;;;;;;;;;;;;;;;15.63;77.32;96772.50;4938492;29;20017;-85
2021/08/11 01:39:28;;;;;;;;;;;;;;;15.58;77.22;96773.22;4969581;28;19982;-85
2021/08/11 01:41:58;;;;;;;;;;;;;;;15.57;76.91;96771.59;4957793;28;19970;-85
2021/08/11 01:44:26;;;;;;;;;;;;;;;15.54;77.05;96772.09;4945449;28;19974;-85
2021/08/11 01:46:52;;;;;;;;;;;;;;;15.53;77.08;96772.34;4957659;28;19963;-85
2021/08/11 01:49:21;;;;;;;;;;;;;;;15.50;77.15;96775.47;4958564;28;20312;-86
2021/08/11 01:51:48;;;;;;;;;;;;;;;15.48;77.67;96785.50;4973425;28;19973;-85
2021/08/11 01:54:14;;;;;;;;;;;;;;;15.47;78.02;96778.59;4964238;28;19982;-85
2021/08/11 01:56:45;;;;;;;;;;;;;;;15.45;78.15;96780.66;4953291;28;19979;-86
2021/08/11 01:59:12;;;;;;;;;;;;;;;15.43;77.77;96792.28;4948449;28;19989;-85
2021/08/11 02:01:38;;;;;;;;;;;;;;;15.41;77.74;96786.44;4964814;28;19970;-85
2021/08/11 02:04:06;;;;;;;;;;;;;;;15.38;77.38;96784.28;4948703;28;19962;-85
2021/08/11 02:06:32;;;;;;;;;;;;;;;15.35;77.08;96779.47;4966304;28;19963;-85
2021/08/11 02:08:59;;;;;;;;;;;;;;;15.33;77.01;96778.91;4964292;28;20367;-85
2021/08/11 02:11:24;;;;;;;;;;;;;;;15.30;77.35;96783.88;4942938;28;19966;-85
2021/08/11 02:13:50;;;;;;;;;;;;;;;15.27;77.44;96779.06;4946389;28;20411;-85
2021/08/11 02:16:17;;;;;;;;;;;;;;;15.24;77.59;96775.06;4957384;28;19966;-85
2021/08/11 02:18:43;;;;;;;;;;;;;;;15.21;77.43;96775.53;4959235;28;19978;-85
2021/08/11 02:21:09;;;;;;;;;;;;;;;15.20;77.35;96773.94;4934812;29;19982;-85
2021/08/11 02:23:35;;;;;;;;;;;;;;;15.18;77.50;96765.44;4935208;28;19992;-85
2021/08/11 02:26:24;;;;;;;;;;;;;;;15.16;77.97;96765.69;4972868;28;19990;-85
2021/08/11 02:28:56;;;;;;;;;;;;;;;15.13;77.80;96771.44;4927582;28;19970;-85
2021/08/11 02:31:28;;;;;;;;;;;;;;;15.12;77.96;96769.03;4943046;28;20395;-86
2021/08/11 02:34:02;;;;;;;;;;;;;;;15.11;77.77;96772.72;4966377;28;19977;-85
2021/08/11 02:36:30;;;;;;;;;;;;;;;15.09;77.78;96769.53;4967632;28;19966;-85
2021/08/11 02:39:00;;;;;;;;;;;;;;;15.08;77.66;96767.94;4937352;28;19997;-85
2021/08/11 02:41:35;;;;;;;;;;;;;;;15.07;78.12;96763.66;4959380;28;19970;-84
2021/08/11 02:44:04;;;;;;;;;;;;;;;15.07;78.83;96763.66;4968256;28;19973;-85
2021/08/11 02:46:32;;;;;;;;;;;;;;;15.05;78.67;96769.19;4964454;28;19970;-85
2021/08/11 02:49:05;;;;;;;;;;;;;;;15.03;78.63;96765.97;4966142;28;19993;-85
2021/08/11 02:51:33;;;;;;;;;;;;;;;15.02;78.49;96780.25;4959123;28;20422;-85
2021/08/11 02:54:01;;;;;;;;;;;;;;;14.99;78.48;96773.59;4951154;28;19978;-86
2021/08/11 02:56:27;;;;;;;;;;;;;;;14.96;78.58;96771.41;4968689;28;19977;-85
2021/08/11 02:58:53;;;;;;;;;;;;;;;14.96;79.07;96776.69;4935142;28;19987;-85
2021/08/11 03:01:20;;;;;;;;;;;;;;;14.94;79.04;96772.69;4925879;29;19971;-85
2021/08/11 03:03:46;;;;;;;;;;;;;;;14.93;78.64;96768.44;4961188;28;20443;-85
2021/08/11 03:06:12;;;;;;;;;;;;;;;14.91;78.46;96773.97;4957579;28;20411;-85
2021/08/11 03:08:38;;;;;;;;;;;;;;;14.89;78.50;96770.78;4963570;28;19974;-85
2021/08/11 03:11:04;;;;;;;;;;;;;;;14.86;78.69;96768.59;4941779;29;19967;-85
2021/08/11 03:13:30;;;;;;;;;;;;;;;14.85;78.51;96774.13;4964001;28;19974;-85
2021/08/11 03:15:56;;;;;;;;;;;;;;;14.85;78.76;96776.78;4952333;28;20344;-85
2021/08/11 03:18:22;;;;;;;;;;;;;;;14.82;78.87;96778.84;4955871;28;20572;-86
2021/08/11 03:20:49;;;;;;;;;;;;;;;14.80;78.90;96775.66;4966651;28;19974;-85
2021/08/11 03:23:15;;;;;;;;;;;;;;;14.78;78.78;96775.06;4946097;28;19978;-85
2021/08/11 03:25:41;;;;;;;;;;;;;;;14.76;78.63;96773.69;4946657;29;19998;-85
2021/08/11 03:28:08;;;;;;;;;;;;;;;14.74;78.98;96767.84;4938816;28;20323;-85
2021/08/11 03:30:36;;;;;;;;;;;;;;;14.73;79.46;96767.03;4945817;28;20419;-86
2021/08/11 03:33:03;;;;;;;;;;;;;;;14.72;79.64;96770.75;4932769;28;19982;-86
2021/08/11 03:35:28;;;;;;;;;;;;;;;14.70;79.77;96769.34;4963514;28;19966;-86
2021/08/11 03:37:55;;;;;;;;;;;;;;;14.70;79.58;96778.09;4932099;28;20403;-85
2021/08/11 03:40:21;;;;;;;;;;;;;;;14.68;79.37;96771.41;4933733;28;19983;-86
2021/08/11 03:42:47;;;;;;;;;;;;;;;14.66;79.25;96776.13;4961938;28;20375;-85
2021/08/11 03:45:13;;;;;;;;;;;;;;;14.65;79.39;96783.25;4967702;28;19999;-85
2021/08/11 03:47:43;;;;;;;;;;;;;;;14.64;79.75;96778.25;4939194;28;19978;-85
2021/08/11 03:50:15;;;;;;;;;;;;;;;14.64;79.92;96778.25;4969856;28;19977;-84
2021/08/11 03:52:42;;;;;;;;;;;;;;;14.64;80.18;96781.66;4964255;28;20435;-85
2021/08/11 03:55:08;;;;;;;;;;;;;;;14.66;80.35;96770.84;4933408;29;19970;-85
2021/08/11 03:57:34;;;;;;;;;;;;;;;14.67;80.35;96767.19;4968195;28;19982;-85
2021/08/11 04:00:00;;;;;;;;;;;;;;;14.66;80.41;96769.03;4968832;28;20502;-85
2021/08/11 04:02:26;;;;;;;;;;;;;;;14.65;80.54;96764.78;4948584;28;19969;-85
2021/08/11 04:04:52;;;;;;;;;;;;;;;14.66;80.08;96771.69;4945590;28;20014;-85
2021/08/11 04:07:18;;;;;;;;;;;;;;;14.65;79.56;96774.53;4935622;29;20006;-85
2021/08/11 04:09:44;;;;;;;;;;;;;;;14.63;80.49;96766.84;4935619;28;20022;-86
2021/08/11 04:12:09;;;;;;;;;;;;;;;14.63;80.82;96774.78;4927851;28;20026;-85
2021/08/11 04:14:35;;;;;;;;;;;;;;;14.64;80.98;96778.25;4963212;28;20066;-85
2021/08/11 04:17:02;;;;;;;;;;;;;;;14.63;80.66;96784.53;4929208;28;19974;-85
2021/08/11 04:19:28;;;;;;;;;;;;;;;14.63;80.42;96774.78;4966742;28;19990;-86
2021/08/11 04:21:54;;;;;;;;;;;;;;;14.63;79.81;96781.91;4949751;28;19975;-84
2021/08/11 04:24:20;;;;;;;;;;;;;;;14.61;80.09;96780.31;4945743;28;19974;-84
2021/08/11 04:26:46;;;;;;;;;;;;;;;14.60;80.15;96783.19;4963553;28;19974;-85
2021/08/11 04:29:12;;;;;;;;;;;;;;;14.60;80.51;96788.44;4932762;28;20465;-85
2021/08/11 04:31:38;;;;;;;;;;;;;;;14.58;80.11;96785.25;4954684;29;19971;-85
2021/08/11 04:34:04;;;;;;;;;;;;;;;14.58;80.16;96793.97;4965751;28;19982;-85
2021/08/11 04:36:30;;;;;;;;;;;;;;;14.58;80.13;96790.53;4965223;28;20009;-85
2021/08/11 04:38:55;;;;;;;;;;;;;;;14.58;80.19;96793.97;4967257;28;20069;-85
2021/08/11 04:41:21;;;;;;;;;;;;;;;14.60;80.17;96797.16;4923200;29;19998;-85
2021/08/11 04:43:47;;;;;;;;;;;;;;;14.61;80.32;96806.72;4922912;29;20062;-85
2021/08/11 04:46:14;;;;;;;;;;;;;;;14.65;80.83;96803.59;4971179;28;20386;-85
2021/08/11 04:48:40;;;;;;;;;;;;;;;14.68;80.54;96793.38;4946897;28;19966;-85
2021/08/11 04:51:06;;;;;;;;;;;;;;;14.74;80.43;96800.34;4927630;28;19962;-85
2021/08/11 04:53:31;;;;;;;;;;;;;;;14.81;80.65;96798.34;4966339;28;19977;-85
2021/08/11 04:55:57;;;;;;;;;;;;;;;14.91;80.46;96791.66;4961788;28;20338;-88
2021/08/11 04:58:23;;;;;;;;;;;;;;;14.97;80.11;96794.16;4938296;29;19967;-88
2021/08/11 05:00:49;;;;;;;;;;;;;;;14.99;79.95;96797.38;4947381;28;19994;-88
2021/08/11 05:03:15;;;;;;;;;;;;;;;15.00;80.02;96798.16;4972891;28;20459;-87
2021/08/11 05:05:41;;;;;;;;;;;;;;;15.01;80.21;96800.56;4934593;29;20033;-88
2021/08/11 05:08:07;;;;;;;;;;;;;;;15.10;80.94;96801.00;4965339;28;20331;-88
2021/08/11 05:10:33;;;;;;;;;;;;;;;15.34;80.57;96799.00;4959376;28;19971;-88
2021/08/11 05:12:59;;;;;;;;;;;;;;;15.63;79.78;96797.09;4953899;28;20424;-88
2021/08/11 05:15:25;;;;;;;;;;;;;;;15.82;79.04;96786.28;4935253;28;19977;-88
2021/08/11 05:17:51;;;;;;;;;;;;;;;16.09;78.72;96789.03;4958671;28;19966;-88
2021/08/11 05:20:19;;;;;;;;;;;;;;;16.42;77.62;96779.38;4971907;28;19986;-88
2021/08/11 05:22:48;;;;;;;;;;;;;;;16.81;76.31;96776.69;4947995;28;20320;-88
2021/08/11 05:25:14;;;;;;;;;;;;;;;17.17;74.97;96783.09;4963077;28;19998;-88
2021/08/11 05:27:41;;;;;;;;;;;;;;;17.53;74.25;96788.69;4962943;28;20001;-88
2021/08/11 05:30:08;;;;;;;;;;;;;;;17.86;72.88;96786.84;4954413;29;19970;-88
2021/08/11 05:32:34;;;;;;;;;;;;;;;18.13;71.84;96788.59;4957777;28;20321;-88
2021/08/11 05:35:00;;;;;;;;;;;;;;;18.40;71.38;96797.22;4959880;28;19977;-88
2021/08/11 05:37:26;;;;;;;;;;;;;;;18.68;70.27;96800.50;4974637;28;19978;-87
2021/08/11 05:39:52;;;;;;;;;;;;;;;18.92;69.54;96797.41;4928289;28;19985;-88
2021/08/11 05:42:18;;;;;;;;;;;;;;;19.14;68.19;96795.34;4957965;28;19977;-86
2021/08/11 05:44:44;;;;;;;;;;;;;;;19.31;68.09;96791.63;4958435;28;19970;-85
2021/08/11 05:47:11;;;;;;;;;;;;;;;19.55;67.53;96798.03;4969861;28;20347;-85
2021/08/11 05:49:37;;;;;;;;;;;;;;;19.78;66.72;96795.88;4959148;28;19970;-85
2021/08/11 05:52:04;;;;;;;;;;;;;;;19.90;66.11;96791.09;4957705;28;19970;-85
2021/08/11 05:54:30;;;;;;;;;;;;;;;19.99;65.22;96789.50;4926347;29;19970;-85
2021/08/11 05:56:56;;;;;;;;;;;;;;;20.13;65.38;96786.25;4924065;29;19962;-85
2021/08/11 05:59:22;;;;;;;;;;;;;;;20.27;65.09;96797.94;4938997;28;19985;-85
2021/08/11 06:01:48;;;;;;;;;;;;;;;20.47;64.53;96797.03;4935194;29;20057;-84
2021/08/11 06:04:14;;;;;;;;;;;;;;;20.64;64.12;96796.72;4939471;29;20034;-85
2021/08/11 06:06:40;;;;;;;;;;;;;;;20.84;63.91;96801.97;4960320;28;20415;-85
2021/08/11 06:09:06;;;;;;;;;;;;;;;21.01;63.36;96796.28;4945755;28;20053;-84
2021/08/11 06:11:32;;;;;;;;;;;;;;;21.12;63.33;96799.66;4930664;28;20069;-85
2021/08/11 06:13:57;;;;;;;;;;;;;;;21.19;62.59;96794.84;4950728;29;20070;-85
2021/08/11 06:16:23;;;;;;;;;;;;;;;21.19;63.12;96796.72;4955184;28;19970;-84
2021/08/11 06:18:49;;;;;;;;;;;;;;;21.16;62.73;96802.59;4955370;29;20054;-85
2021/08/11 06:21:15;;;;;;;;;;;;;;;20.95;62.84;96801.91;4954207;28;20017;-85
2021/08/11 06:23:41;;;;;;;;;;;;;;;20.70;63.54;96808.97;4935481;29;19971;-85
2021/08/11 06:26:07;;;;;;;;;;;;;;;20.57;64.11;96813.00;4971402;28;19991;-85
2021/08/11 06:28:33;;;;;;;;;;;;;;;20.42;64.26;96811.19;4935838;28;20069;-84
2021/08/11 06:30:59;;;;;;;;;;;;;;;20.06;65.14;96824.59;4963656;28;19967;-85
2021/08/11 06:33:25;;;;;;;;;;;;;;;19.90;65.54;96825.69;4956165;29;19971;-84
2021/08/11 06:35:51;;;;;;;;;;;;;;;20.05;65.73;96816.88;4966069;28;20022;-85
2021/08/11 06:38:17;;;;;;;;;;;;;;;20.13;65.68;96811.00;4950978;28;20004;-84
2021/08/11 06:40:43;;;;;;;;;;;;;;;20.10;66.27;96818.75;4934606;28;19978;-85
2021/08/11 06:43:09;;;;;;;;;;;;;;;20.27;65.95;96819.22;4961875;28;19974;-84
2021/08/11 06:45:35;;;;;;;;;;;;;;;20.54;65.84;96824.22;4951553;29;20346;-85
2021/08/11 06:48:01;;;;;;;;;;;;;;;20.82;65.05;96824.66;4950081;29;19963;-84
2021/08/11 06:50:28;;;;;;;;;;;;;;;21.17;64.13;96818.31;4966109;28;19990;-84
2021/08/11 06:52:54;;;;;;;;;;;;;;;21.37;63.38;96819.25;4960215;28;20417;-84
2021/08/11 06:55:20;;;;;;;;;;;;;;;21.48;62.72;96810.94;4951521;28;20427;-84
2021/08/11 06:57:47;;;;;;;;;;;;;;;21.54;63.32;96817.00;4932070;28;20025;-84
2021/08/11 07:00:14;;;;;;;;;;;;;;;21.69;62.73;96813.41;4960154;28;19982;-84
2021/08/11 07:02:39;;;;;;;;;;;;;;;21.83;62.49;96813.56;4960104;28;20327;-84
2021/08/11 07:05:06;;;;;;;;;;;;;;;21.93;60.29;96804.69;4947558;28;19971;-84
2021/08/11 07:07:32;;;;;;;;;;;;;;;21.98;61.76;96807.28;4957127;28;19971;-84
2021/08/11 07:09:58;;;;;;;;;;;;;;;22.18;62.57;96816.97;4952142;28;19993;-84
2021/08/11 07:12:24;;;;;;;;;;;;;;;22.40;61.84;96809.25;4950838;28;19966;-83
2021/08/11 07:14:52;;;;;;;;;;;;;;;22.53;60.46;96807.78;4948810;28;20010;-84
2021/08/11 07:17:18;;;;;;;;;;;;;;;22.59;60.75;96809.31;4947036;28;19967;-83
2021/08/11 07:19:44;;;;;;;;;;;;;;;22.78;60.15;96806.66;4949223;28;19985;-84
2021/08/11 07:22:10;;;;;;;;;;;;;;;22.81;58.52;96789.25;4959560;28;19966;-84
2021/08/11 07:24:36;;;;;;;;;;;;;;;22.88;58.95;96789.69;4946866;28;19997;-84
2021/08/11 07:27:03;;;;;;;;;;;;;;;23.06;58.81;96790.81;4931947;29;19974;-83
2021/08/11 07:29:29;;;;;;;;;;;;;;;23.28;57.35;96772.28;4952648;29;19974;-83
2021/08/11 07:31:55;;;;;;;;;;;;;;;23.42;56.79;96764.28;4938565;28;19975;-83
2021/08/11 07:34:21;;;;;;;;;;;;;;;23.51;57.31;96767.88;4966823;28;19966;-83
2021/08/11 07:36:46;;;;;;;;;;;;;;;23.61;56.42;96760.78;4949805;28;20339;-83
2021/08/11 07:39:12;;;;;;;;;;;;;;;23.56;55.24;96748.28;4929080;28;19966;-83
2021/08/11 07:41:38;;;;;;;;;;;;;;;23.49;54.79;96747.84;4953125;29;20422;-82
2021/08/11 07:44:04;;;;;;;;;;;;;;;23.48;55.30;96751.63;4946454;28;19967;-83
2021/08/11 07:46:30;;;;;;;;;;;;;;;23.44;55.21;96748.75;4946990;28;19966;-83
2021/08/11 07:48:58;;;;;;;;;;;;;;;23.46;53.27;96738.53;4932248;29;19961;-83
2021/08/11 07:51:23;;;;;;;;;;;;;;;23.51;57.07;96773.22;4951696;28;19973;-82
2021/08/11 07:53:49;;;;;;;;;;;;;;;23.69;56.61;96771.59;4944673;29;19970;-82
2021/08/11 07:56:15;;;;;;;;;;;;;;;23.94;55.49;96760.75;4970829;28;20634;-82
2021/08/11 07:58:41;;;;;;;;;;;;;;;23.99;54.24;96742.72;4959119;28;19970;-82
2021/08/11 08:01:07;;;;;;;;;;;;;;;24.09;54.84;96755.91;4961574;28;19991;-81
2021/08/11 08:03:33;;;;;;;;;;;;;;;24.26;55.78;96766.03;4936297;29;19973;-82
2021/08/11 08:05:59;;;;;;;;;;;;;;;24.39;55.71;96759.06;4949198;28;20483;-84
2021/08/11 08:08:25;;;;;;;;;;;;;;;24.56;55.73;96755.81;4946415;28;19977;-82
2021/08/11 08:10:51;;;;;;;;;;;;;;;24.54;52.63;96728.50;4974483;28;19978;-86
2021/08/11 08:13:20;;;;;;;;;;;;;;;24.36;54.82;96748.97;4962556;28;19998;-84
2021/08/11 08:15:47;;;;;;;;;;;;;;;24.30;53.50;96740.22;4945670;28;19978;-81
2021/08/11 08:18:13;;;;;;;;;;;;;;;24.43;53.53;96733.25;4959600;28;19970;-85
2021/08/11 08:20:39;;;;;;;;;;;;;;;24.63;54.74;96736.63;4930177;29;19982;-82
2021/08/11 08:23:05;;;;;;;;;;;;;;;24.82;53.90;96733.78;4942136;29;19975;-82
2021/08/11 08:25:31;;;;;;;;;;;;;;;24.99;53.59;96735.81;4953091;28;20462;-82
2021/08/11 08:27:57;;;;;;;;;;;;;;;25.15;52.72;96733.59;4952805;28;19970;-82
2021/08/11 08:30:23;;;;;;;;;;;;;;;25.07;51.35;96716.31;4947049;28;19967;-82
2021/08/11 08:32:49;;;;;;;;;;;;;;;25.05;51.00;96718.50;4965768;28;19973;-82
2021/08/11 08:35:15;;;;;;;;;;;;;;;25.05;52.67;96738.09;4967088;28;19978;-83
2021/08/11 08:37:41;;;;;;;;;;;;;;;25.01;53.62;96739.00;4952370;28;19975;-82
2021/08/11 08:40:12;;;;;;;;;;;;;;;24.88;54.15;96752.19;4949848;28;20006;-82
2021/08/11 08:42:39;;;;;;;;;;;;;;;24.58;52.68;96734.06;4971784;28;20428;-82
2021/08/11 08:45:05;;;;;;;;;;;;;;;24.36;52.82;96748.16;4951542;29;19970;-82
2021/08/11 08:47:32;;;;;;;;;;;;;;;24.28;53.33;96746.97;4937024;28;19966;-82
2021/08/11 08:50:02;;;;;;;;;;;;;;;24.19;53.56;96752.25;4930117;28;19978;-82
2021/08/11 08:52:29;;;;;;;;;;;;;;;24.21;54.15;96754.63;4948972;29;19971;-82
2021/08/11 08:54:59;;;;;;;;;;;;;;;24.38;54.04;96759.38;4946435;28;19966;-82
2021/08/11 08:57:25;;;;;;;;;;;;;;;24.60;54.63;96764.06;4945611;29;19974;-82
2021/08/11 08:59:51;;;;;;;;;;;;;;;24.74;53.00;96743.38;4957215;28;19985;-82
2021/08/11 09:02:17;;;;;;;;;;;;;;;24.81;53.07;96742.94;4944025;29;19967;-82
2021/08/11 09:04:43;;;;;;;;;;;;;;;24.95;53.89;96759.00;4944317;28;19966;-82
2021/08/11 09:07:12;;;;;;;;;;;;;;;25.12;54.20;96753.78;4931383;28;19971;-82
2021/08/11 09:09:38;;;;;;;;;;;;;;;25.20;52.73;96749.56;4945348;28;19990;-81
2021/08/11 09:12:23;;;;;;;;;;;;;;;25.19;52.51;96753.34;4952408;29;19982;-82
2021/08/11 09:14:50;;;;;;;;;;;;;;;25.17;51.62;96742.91;4932838;29;19970;-82
2021/08/11 09:17:31;;;;;;;;;;;;;;;25.16;52.71;96751.25;4949801;29;19963;-82
2021/08/11 09:19:58;;;;;;;;;;;;;;;25.11;52.48;96753.00;4932476;29;19979;-82
2021/08/11 09:22:24;;;;;;;;;;;;;;;25.19;53.49;96754.13;4936624;28;19977;-82
2021/08/11 09:25:06;;;;;;;;;;;;;;;25.33;53.48;96753.34;4931944;28;20016;-81
2021/08/11 09:27:38;;;;;;;;;;;;;;;25.43;51.28;96726.22;4941952;28;19971;-82
2021/08/11 09:30:14;;;;;;;;;;;;;;;25.49;51.94;96730.34;4936378;29;19966;-82
2021/08/11 09:32:59;;;;;;;;;;;;;;;25.57;51.93;96739.56;4933163;28;19970;-82
2021/08/11 09:35:26;;;;;;;;;;;;;;;25.54;50.66;96724.09;4947932;28;20343;-82
2021/08/11 09:37:53;;;;;;;;;;;;;;;25.54;49.55;96713.34;4947140;28;19966;-82
2021/08/11 09:40:20;;;;;;;;;;;;;;;25.48;51.52;96728.78;4929174;28;19979;-82
2021/08/11 09:42:47;;;;;;;;;;;;;;;25.53;53.41;96750.13;4973608;28;19982;-82
2021/08/11 09:45:15;;;;;;;;;;;;;;;25.61;51.55;96730.59;4934962;28;19970;-81
2021/08/11 09:47:54;;;;;;;;;;;;;;;25.72;52.56;96741.84;4970970;28;19990;-82
2021/08/11 09:50:31;;;;;;;;;;;;;;;25.84;51.89;96733.22;4935170;28;19963;-82
2021/08/11 09:52:57;;;;;;;;;;;;;;;25.83;51.73;96727.06;4949052;29;19974;-82
2021/08/11 09:55:23;;;;;;;;;;;;;;;25.91;51.81;96723.66;4975477;28;19971;-82
2021/08/11 09:57:49;;;;;;;;;;;;;;;25.99;50.04;96708.66;4953096;28;19974;-81
2021/08/11 10:00:15;;;;;;;;;;;;;;;25.95;49.38;96704.22;4946975;28;19983;-82
2021/08/11 10:02:42;;;;;;;;;;;;;;;25.99;48.32;96707.88;4957608;28;19967;-81
2021/08/11 10:05:09;;;;;;;;;;;;;;;26.09;49.40;96711.06;4968785;28;20432;-80
2021/08/11 10:07:36;;;;;;;;;;;;;;;26.17;49.30;96701.44;4935560;29;19973;-81
2021/08/11 10:10:05;;;;;;;;;;;;;;;26.29;48.96;96698.94;4968516;28;19973;-81
2021/08/11 10:12:32;;;;;;;;;;;;;;;26.34;48.66;96700.69;4970619;28;19970;-82
2021/08/11 10:14:59;;;;;;;;;;;;;;;26.35;49.29;96704.94;4949882;28;19963;-81
2021/08/11 10:17:29;;;;;;;;;;;;;;;26.48;50.34;96717.47;4953895;29;20442;-82
2021/08/11 10:19:56;;;;;;;;;;;;;;;26.63;50.48;96716.25;4937676;28;19967;-81
2021/08/11 10:22:22;;;;;;;;;;;;;;;26.81;49.16;96706.28;4964194;28;19963;-81
2021/08/11 10:24:50;;;;;;;;;;;;;;;27.00;48.30;96699.78;4967225;28;19995;-81
2021/08/11 10:27:18;;;;;;;;;;;;;;;27.15;48.48;96710.06;4956196;28;19974;-81
2021/08/11 10:29:45;;;;;;;;;;;;;;;27.21;44.56;96679.16;4933875;28;19993;-81
2021/08/11 10:32:11;;;;;;;;;;;;;;;27.35;46.12;96695.19;4931488;29;20399;-82
2021/08/11 10:34:38;;;;;;;;;;;;;;;27.53;47.54;96706.72;4954665;28;19971;-81
2021/08/11 10:37:04;;;;;;;;;;;;;;;27.55;46.84;96712.56;4949849;28;20423;-81
2021/08/11 10:39:31;;;;;;;;;;;;;;;27.52;44.66;96697.03;4966133;28;19962;-81
2021/08/11 10:42:01;;;;;;;;;;;;;;;27.58;47.19;96728.09;4948515;28;19997;-81
2021/08/11 10:44:28;;;;;;;;;;;;;;;27.63;46.50;96727.91;4942071;29;19962;-81
2021/08/11 10:46:55;;;;;;;;;;;;;;;27.78;45.52;96721.19;4952403;29;19974;-81
2021/08/11 10:49:22;;;;;;;;;;;;;;;27.92;45.97;96732.59;4954058;28;19966;-84
2021/08/11 10:51:49;;;;;;;;;;;;;;;28.06;44.44;96720.81;4934428;29;19967;-81
2021/08/11 10:54:15;;;;;;;;;;;;;;;28.01;42.85;96737.16;4952985;28;19990;-82
2021/08/11 10:56:41;;;;;;;;;;;;;;;27.97;44.71;96744.31;4952834;28;19970;-82
2021/08/11 10:59:29;;;;;;;;;;;;;;;28.12;45.26;96747.25;4947716;28;19967;-80
2021/08/11 11:01:55;;;;;;;;;;;;;;;28.39;44.84;96739.84;4969866;28;19987;-82
2021/08/11 11:04:37;;;;;;;;;;;;;;;28.65;45.18;96730.81;4949638;28;19974;-81
2021/08/11 11:07:13;;;;;;;;;;;;;;;28.89;42.35;96727.44;4936456;29;19970;-81
2021/08/11 11:09:43;;;;;;;;;;;;;;;28.88;39.98;96723.97;4968616;28;19981;-81
2021/08/11 11:12:18;;;;;;;;;;;;;;;28.90;41.03;96729.81;4969037;28;19975;-81
2021/08/11 11:14:48;;;;;;;;;;;;;;;28.71;42.29;96732.97;4951508;28;19973;-81
2021/08/11 11:17:15;;;;;;;;;;;;;;;28.69;41.65;96731.72;4951199;28;19973;-80
2021/08/11 11:19:59;;;;;;;;;;;;;;;28.53;42.97;96748.47;4946103;28;19989;-79
2021/08/11 11:22:40;;;;;;;;;;;;;;;28.59;42.00;96742.91;4947679;28;19973;-79
2021/08/11 11:25:08;;;;;;;;;;;;;;;28.48;43.45;96748.66;4968872;28;20006;-81
2021/08/11 11:27:37;;;;;;;;;;;;;;;28.32;44.52;96755.72;4952310;29;19973;-79
2021/08/11 11:30:04;;;;;;;;;;;;;;;28.12;44.40;96751.88;4949920;29;19963;-81
2021/08/11 11:32:29;;;;;;;;;;;;;;;27.96;44.79;96756.22;4949703;28;19967;-83
2021/08/11 11:35:14;;;;;;;;;;;;;;;27.77;45.27;96764.66;4968852;28;19970;-82
2021/08/11 11:37:40;;;;;;;;;;;;;;;27.70;45.45;96755.16;4963097;28;19969;-80
2021/08/11 11:40:06;;;;;;;;;;;;;;;27.62;45.28;96747.88;4949202;28;19974;-81
2021/08/11 11:42:32;;;;;;;;;;;;;;;27.81;44.83;96739.44;4969994;28;19985;-82
2021/08/11 11:44:59;;;;;;;;;;;;;;;28.09;45.72;96742.50;4949903;29;20363;-83
2021/08/11 11:50:22;;;;;;;;;;;;;;;28.27;44.98;96740.53;4957635;28;19974;-80
2021/08/11 11:52:51;;;;;;;;;;;;;;;28.22;45.10;96738.00;4951413;28;19967;-82
2021/08/11 11:55:32;;;;;;;;;;;;;;;28.34;45.19;96729.22;4963377;28;19981;-83
2021/08/11 11:58:02;;;;;;;;;;;;;;;28.62;44.12;96723.34;4976321;28;19971;-80
2021/08/11 12:00:29;;;;;;;;;;;;;;;28.71;41.09;96703.28;4931392;28;20423;-81
2021/08/11 12:02:55;;;;;;;;;;;;;;;28.84;43.00;96722.25;4931208;29;19967;-80
2021/08/11 12:05:22;;;;;;;;;;;;;;;28.98;42.47;96713.88;4971367;28;19973;-81
2021/08/11 12:07:48;;;;;;;;;;;;;;;29.09;44.18;96725.84;4963043;28;19992;-81
2021/08/11 12:10:40;;;;;;;;;;;;;;;29.20;43.99;96726.25;4944407;28;20065;-80
2021/08/11 12:13:06;;;;;;;;;;;;;;;29.03;43.85;96737.97;4964956;28;19962;-80
2021/08/11 12:15:34;;;;;;;;;;;;;;;28.67;44.43;96745.56;4949622;28;19974;-82
2021/08/11 12:18:11;;;;;;;;;;;;;;;28.66;45.70;96743.16;4968987;28;20427;-82
2021/08/11 12:20:37;;;;;;;;;;;;;;;28.52;45.51;96740.75;4939092;28;19978;-80
2021/08/11 12:23:16;;;;;;;;;;;;;;;28.31;45.37;96746.06;4961517;28;20013;-80
2021/08/11 12:25:41;;;;;;;;;;;;;;;28.03;45.72;96751.09;4948174;29;19994;-80
2021/08/11 12:28:07;;;;;;;;;;;;;;;28.05;45.76;96748.88;4970623;28;20470;-81
2021/08/11 12:30:34;;;;;;;;;;;;;;;28.22;46.23;96761.47;4965009;28;19985;-81
2021/08/11 12:33:01;;;;;;;;;;;;;;;28.43;45.77;96746.16;4962074;28;19978;-81
2021/08/11 12:35:27;;;;;;;;;;;;;;;28.41;44.56;96740.31;4971439;28;19967;-81
2021/08/11 12:37:53;;;;;;;;;;;;;;;28.43;45.39;96732.69;4966066;28;19970;-81
2021/08/11 12:40:32;;;;;;;;;;;;;;;28.56;44.68;96722.78;4962665;28;20315;-82
2021/08/11 12:42:59;;;;;;;;;;;;;;;28.71;45.32;96732.97;4959488;28;20439;-82
2021/08/11 12:45:26;;;;;;;;;;;;;;;28.77;43.76;96711.19;4946757;29;19970;-81
2021/08/11 12:47:52;;;;;;;;;;;;;;;28.85;43.79;96721.13;4948041;29;19969;-81
2021/08/11 12:50:20;;;;;;;;;;;;;;;28.79;43.64;96717.84;4949069;29;19977;-81
2021/08/11 12:52:53;;;;;;;;;;;;;;;28.71;44.26;96716.00;4961854;28;19967;-82